sensor_id;sensor_type;location;lat;lon;timestamp;P1;durP1;ratioP1;P2;durP2;ratioP2
76171;SDS011;64929;51.178;4.138;2023-12-04T00:01:32;8.43;;;4.50;;
76171;SDS011;64929;51.178;4.138;2023-12-04T00:04:00;9.87;;;4.67;;
76171;SDS011;64929;51.178;4.138;2023-12-04T00:06:26;9.23;;;5.00;;
76171;SDS011;64929;51.178;4.138;2023-12-04T00:08:52;8.53;;;4.60;;
76171;SDS011;64929;51.178;4.138;2023-12-04T00:11:18;9.40;;;5.13;;
76171;SDS011;64929;51.178;4.138;2023-12-04T00:13:46;10.53;;;4.83;;
76171;SDS011;64929;51.178;4.138;2023-12-04T00:16:12;10.90;;;4.00;;
76171;SDS011;64929;51.178;4.138;2023-12-04T00:18:37;10.93;;;4.33;;
76171;SDS011;64929;51.178;4.138;2023-12-04T00:21:03;10.03;;;4.53;;
76171;SDS011;64929;51.178;4.138;2023-12-04T00:23:29;9.03;;;4.33;;
76171;SDS011;64929;51.178;4.138;2023-12-04T00:25:55;8.93;;;4.23;;
76171;SDS011;64929;51.178;4.138;2023-12-04T00:28:21;10.52;;;4.78;;
76171;SDS011;64929;51.178;4.138;2023-12-04T00:30:46;9.25;;;4.60;;
76171;SDS011;64929;51.178;4.138;2023-12-04T00:33:12;9.68;;;4.43;;
76171;SDS011;64929;51.178;4.138;2023-12-04T00:35:38;10.40;;;4.50;;
76171;SDS011;64929;51.178;4.138;2023-12-04T00:38:05;10.23;;;4.55;;
76171;SDS011;64929;51.178;4.138;2023-12-04T00:43:04;9.13;;;3.93;;
76171;SDS011;64929;51.178;4.138;2023-12-04T00:45:34;9.65;;;4.18;;
76171;SDS011;64929;51.178;4.138;2023-12-04T00:47:59;8.20;;;4.20;;
76171;SDS011;64929;51.178;4.138;2023-12-04T00:50:25;9.20;;;4.50;;
76171;SDS011;64929;51.178;4.138;2023-12-04T00:52:51;8.90;;;4.20;;
76171;SDS011;64929;51.178;4.138;2023-12-04T00:55:16;8.87;;;3.97;;
76171;SDS011;64929;51.178;4.138;2023-12-04T00:57:42;7.80;;;4.13;;
76171;SDS011;64929;51.178;4.138;2023-12-04T01:00:08;8.63;;;3.97;;
76171;SDS011;64929;51.178;4.138;2023-12-04T01:02:34;10.02;;;4.50;;
76171;SDS011;64929;51.178;4.138;2023-12-04T01:04:59;7.43;;;4.27;;
76171;SDS011;64929;51.178;4.138;2023-12-04T01:07:25;7.00;;;4.00;;
76171;SDS011;64929;51.178;4.138;2023-12-04T01:09:51;8.05;;;4.15;;
76171;SDS011;64929;51.178;4.138;2023-12-04T01:12:16;8.80;;;4.40;;
76171;SDS011;64929;51.178;4.138;2023-12-04T01:14:42;8.77;;;3.97;;
76171;SDS011;64929;51.178;4.138;2023-12-04T01:17:08;8.13;;;3.50;;
76171;SDS011;64929;51.178;4.138;2023-12-04T01:19:33;7.55;;;4.10;;
76171;SDS011;64929;51.178;4.138;2023-12-04T01:21:59;7.97;;;4.03;;
76171;SDS011;64929;51.178;4.138;2023-12-04T01:24:25;9.57;;;4.18;;
76171;SDS011;64929;51.178;4.138;2023-12-04T01:26:50;8.23;;;4.13;;
76171;SDS011;64929;51.178;4.138;2023-12-04T01:29:16;8.95;;;3.70;;
76171;SDS011;64929;51.178;4.138;2023-12-04T01:31:41;8.93;;;3.97;;
76171;SDS011;64929;51.178;4.138;2023-12-04T01:34:07;9.10;;;4.33;;
76171;SDS011;64929;51.178;4.138;2023-12-04T01:36:33;7.73;;;4.17;;
76171;SDS011;64929;51.178;4.138;2023-12-04T01:38:58;8.47;;;4.40;;
76171;SDS011;64929;51.178;4.138;2023-12-04T01:41:24;9.27;;;4.33;;
76171;SDS011;64929;51.178;4.138;2023-12-04T01:43:50;9.70;;;3.73;;
76171;SDS011;64929;51.178;4.138;2023-12-04T01:46:15;8.77;;;4.33;;
76171;SDS011;64929;51.178;4.138;2023-12-04T01:48:43;9.03;;;4.07;;
76171;SDS011;64929;51.178;4.138;2023-12-04T01:51:11;10.23;;;4.10;;
76171;SDS011;64929;51.178;4.138;2023-12-04T01:53:38;10.27;;;4.00;;
76171;SDS011;64929;51.178;4.138;2023-12-04T01:56:05;7.87;;;3.77;;
76171;SDS011;64929;51.178;4.138;2023-12-04T01:58:32;6.37;;;3.90;;
76171;SDS011;64929;51.178;4.138;2023-12-04T02:00:58;8.37;;;3.73;;
76171;SDS011;64929;51.178;4.138;2023-12-04T02:03:24;7.50;;;3.70;;
76171;SDS011;64929;51.178;4.138;2023-12-04T02:05:50;11.27;;;4.00;;
76171;SDS011;64929;51.178;4.138;2023-12-04T02:08:18;9.60;;;4.17;;
76171;SDS011;64929;51.178;4.138;2023-12-04T02:10:44;7.90;;;3.70;;
76171;SDS011;64929;51.178;4.138;2023-12-04T02:13:09;8.20;;;3.87;;
76171;SDS011;64929;51.178;4.138;2023-12-04T02:15:36;8.30;;;4.17;;
76171;SDS011;64929;51.178;4.138;2023-12-04T02:18:02;7.22;;;3.70;;
76171;SDS011;64929;51.178;4.138;2023-12-04T02:20:35;8.37;;;3.77;;
76171;SDS011;64929;51.178;4.138;2023-12-04T02:23:01;5.97;;;3.13;;
76171;SDS011;64929;51.178;4.138;2023-12-04T02:25:28;8.37;;;4.00;;
76171;SDS011;64929;51.178;4.138;2023-12-04T02:27:56;6.18;;;3.28;;
76171;SDS011;64929;51.178;4.138;2023-12-04T02:30:24;8.15;;;4.00;;
76171;SDS011;64929;51.178;4.138;2023-12-04T02:32:53;7.53;;;3.70;;
76171;SDS011;64929;51.178;4.138;2023-12-04T02:35:22;6.90;;;3.73;;
76171;SDS011;64929;51.178;4.138;2023-12-04T02:37:49;6.83;;;3.97;;
76171;SDS011;64929;51.178;4.138;2023-12-04T02:40:16;8.43;;;3.40;;
76171;SDS011;64929;51.178;4.138;2023-12-04T02:42:42;7.67;;;3.80;;
76171;SDS011;64929;51.178;4.138;2023-12-04T02:45:07;8.10;;;4.10;;
76171;SDS011;64929;51.178;4.138;2023-12-04T02:47:33;9.73;;;4.20;;
76171;SDS011;64929;51.178;4.138;2023-12-04T02:49:59;8.90;;;3.70;;
76171;SDS011;64929;51.178;4.138;2023-12-04T02:52:25;5.83;;;3.50;;
76171;SDS011;64929;51.178;4.138;2023-12-04T02:54:50;5.27;;;2.97;;
76171;SDS011;64929;51.178;4.138;2023-12-04T02:57:16;8.40;;;3.80;;
76171;SDS011;64929;51.178;4.138;2023-12-04T02:59:42;7.57;;;3.53;;
76171;SDS011;64929;51.178;4.138;2023-12-04T03:02:07;7.80;;;3.55;;
76171;SDS011;64929;51.178;4.138;2023-12-04T03:04:34;6.45;;;3.60;;
76171;SDS011;64929;51.178;4.138;2023-12-04T03:07:00;5.95;;;3.00;;
76171;SDS011;64929;51.178;4.138;2023-12-04T03:09:26;6.93;;;3.53;;
76171;SDS011;64929;51.178;4.138;2023-12-04T03:11:51;9.10;;;3.13;;
76171;SDS011;64929;51.178;4.138;2023-12-04T03:14:17;8.10;;;3.67;;
76171;SDS011;64929;51.178;4.138;2023-12-04T03:16:43;6.38;;;3.53;;
76171;SDS011;64929;51.178;4.138;2023-12-04T03:19:09;5.33;;;3.13;;
76171;SDS011;64929;51.178;4.138;2023-12-04T03:21:34;6.10;;;3.40;;
76171;SDS011;64929;51.178;4.138;2023-12-04T03:24:00;7.13;;;2.92;;
76171;SDS011;64929;51.178;4.138;2023-12-04T03:26:26;6.23;;;3.20;;
76171;SDS011;64929;51.178;4.138;2023-12-04T03:28:51;5.47;;;2.97;;
76171;SDS011;64929;51.178;4.138;2023-12-04T03:31:17;5.63;;;2.87;;
76171;SDS011;64929;51.178;4.138;2023-12-04T03:33:43;6.85;;;3.22;;
76171;SDS011;64929;51.178;4.138;2023-12-04T03:36:08;9.93;;;3.30;;
76171;SDS011;64929;51.178;4.138;2023-12-04T03:38:34;9.95;;;3.03;;
76171;SDS011;64929;51.178;4.138;2023-12-04T03:41:00;7.68;;;3.15;;
76171;SDS011;64929;51.178;4.138;2023-12-04T03:43:28;6.32;;;3.13;;
76171;SDS011;64929;51.178;4.138;2023-12-04T03:45:54;9.63;;;3.33;;
76171;SDS011;64929;51.178;4.138;2023-12-04T03:48:19;5.83;;;3.30;;
76171;SDS011;64929;51.178;4.138;2023-12-04T03:50:45;7.23;;;3.63;;
76171;SDS011;64929;51.178;4.138;2023-12-04T03:53:11;7.07;;;3.60;;
76171;SDS011;64929;51.178;4.138;2023-12-04T03:55:37;5.63;;;2.70;;
76171;SDS011;64929;51.178;4.138;2023-12-04T03:58:03;6.47;;;3.77;;
76171;SDS011;64929;51.178;4.138;2023-12-04T04:00:29;5.80;;;3.17;;
76171;SDS011;64929;51.178;4.138;2023-12-04T04:02:54;6.38;;;3.08;;
76171;SDS011;64929;51.178;4.138;2023-12-04T04:05:20;7.25;;;3.58;;
76171;SDS011;64929;51.178;4.138;2023-12-04T04:07:46;6.57;;;3.60;;
76171;SDS011;64929;51.178;4.138;2023-12-04T04:10:12;6.57;;;3.03;;
76171;SDS011;64929;51.178;4.138;2023-12-04T04:12:37;5.27;;;3.10;;
76171;SDS011;64929;51.178;4.138;2023-12-04T04:15:03;7.55;;;3.50;;
76171;SDS011;64929;51.178;4.138;2023-12-04T04:17:29;7.00;;;2.90;;
76171;SDS011;64929;51.178;4.138;2023-12-04T04:19:55;5.00;;;3.20;;
76171;SDS011;64929;51.178;4.138;2023-12-04T04:22:21;6.53;;;3.27;;
76171;SDS011;64929;51.178;4.138;2023-12-04T04:24:47;7.13;;;2.90;;
76171;SDS011;64929;51.178;4.138;2023-12-04T04:27:13;6.23;;;3.07;;
76171;SDS011;64929;51.178;4.138;2023-12-04T04:29:39;7.03;;;3.27;;
76171;SDS011;64929;51.178;4.138;2023-12-04T04:32:04;5.20;;;3.20;;
76171;SDS011;64929;51.178;4.138;2023-12-04T04:34:30;9.60;;;3.63;;
76171;SDS011;64929;51.178;4.138;2023-12-04T04:36:56;7.28;;;3.53;;
76171;SDS011;64929;51.178;4.138;2023-12-04T04:39:22;6.93;;;3.70;;
76171;SDS011;64929;51.178;4.138;2023-12-04T04:41:48;5.90;;;3.50;;
76171;SDS011;64929;51.178;4.138;2023-12-04T04:44:13;9.17;;;3.47;;
76171;SDS011;64929;51.178;4.138;2023-12-04T04:46:39;7.10;;;3.40;;
76171;SDS011;64929;51.178;4.138;2023-12-04T04:49:05;6.83;;;3.53;;
76171;SDS011;64929;51.178;4.138;2023-12-04T04:51:33;7.10;;;3.53;;
76171;SDS011;64929;51.178;4.138;2023-12-04T04:54:00;5.33;;;3.10;;
76171;SDS011;64929;51.178;4.138;2023-12-04T04:56:26;6.50;;;3.27;;
76171;SDS011;64929;51.178;4.138;2023-12-04T04:58:51;8.97;;;3.13;;
76171;SDS011;64929;51.178;4.138;2023-12-04T05:01:17;5.00;;;2.97;;
76171;SDS011;64929;51.178;4.138;2023-12-04T05:03:43;7.80;;;3.13;;
76171;SDS011;64929;51.178;4.138;2023-12-04T05:06:08;5.50;;;3.03;;
76171;SDS011;64929;51.178;4.138;2023-12-04T05:08:34;6.13;;;2.92;;
76171;SDS011;64929;51.178;4.138;2023-12-04T05:11:00;7.63;;;3.42;;
76171;SDS011;64929;51.178;4.138;2023-12-04T05:13:26;5.38;;;3.08;;
76171;SDS011;64929;51.178;4.138;2023-12-04T05:15:51;6.90;;;3.03;;
76171;SDS011;64929;51.178;4.138;2023-12-04T05:18:17;4.53;;;2.72;;
76171;SDS011;64929;51.178;4.138;2023-12-04T05:20:43;6.27;;;3.00;;
76171;SDS011;64929;51.178;4.138;2023-12-04T05:23:08;6.63;;;2.80;;
76171;SDS011;64929;51.178;4.138;2023-12-04T05:25:34;5.70;;;2.95;;
76171;SDS011;64929;51.178;4.138;2023-12-04T05:28:00;4.57;;;2.65;;
76171;SDS011;64929;51.178;4.138;2023-12-04T05:30:25;6.10;;;2.90;;
76171;SDS011;64929;51.178;4.138;2023-12-04T05:32:51;4.82;;;3.05;;
76171;SDS011;64929;51.178;4.138;2023-12-04T05:35:17;6.22;;;2.80;;
76171;SDS011;64929;51.178;4.138;2023-12-04T05:37:42;5.43;;;2.85;;
76171;SDS011;64929;51.178;4.138;2023-12-04T05:40:08;5.45;;;2.90;;
76171;SDS011;64929;51.178;4.138;2023-12-04T05:42:36;5.65;;;2.65;;
76171;SDS011;64929;51.178;4.138;2023-12-04T05:45:02;4.15;;;2.50;;
76171;SDS011;64929;51.178;4.138;2023-12-04T05:47:28;8.20;;;3.00;;
76171;SDS011;64929;51.178;4.138;2023-12-04T05:49:54;4.90;;;2.72;;
76171;SDS011;64929;51.178;4.138;2023-12-04T05:52:20;4.15;;;2.40;;
76171;SDS011;64929;51.178;4.138;2023-12-04T05:54:45;5.15;;;3.10;;
76171;SDS011;64929;51.178;4.138;2023-12-04T05:57:11;5.38;;;3.33;;
76171;SDS011;64929;51.178;4.138;2023-12-04T05:59:37;6.95;;;3.25;;
76171;SDS011;64929;51.178;4.138;2023-12-04T06:02:03;5.90;;;3.20;;
76171;SDS011;64929;51.178;4.138;2023-12-04T06:04:29;5.22;;;3.05;;
76171;SDS011;64929;51.178;4.138;2023-12-04T06:06:54;4.85;;;2.67;;
76171;SDS011;64929;51.178;4.138;2023-12-04T06:09:20;5.95;;;2.92;;
76171;SDS011;64929;51.178;4.138;2023-12-04T06:11:46;7.57;;;2.78;;
76171;SDS011;64929;51.178;4.138;2023-12-04T06:14:11;4.72;;;2.72;;
76171;SDS011;64929;51.178;4.138;2023-12-04T06:16:37;6.22;;;3.20;;
76171;SDS011;64929;51.178;4.138;2023-12-04T06:19:03;6.78;;;3.20;;
76171;SDS011;64929;51.178;4.138;2023-12-04T06:21:31;6.50;;;3.40;;
76171;SDS011;64929;51.178;4.138;2023-12-04T06:23:57;6.40;;;3.13;;
76171;SDS011;64929;51.178;4.138;2023-12-04T06:26:23;6.97;;;3.30;;
76171;SDS011;64929;51.178;4.138;2023-12-04T06:28:49;9.68;;;3.72;;
76171;SDS011;64929;51.178;4.138;2023-12-04T06:31:15;7.40;;;3.28;;
76171;SDS011;64929;51.178;4.138;2023-12-04T06:33:42;7.40;;;3.60;;
76171;SDS011;64929;51.178;4.138;2023-12-04T06:36:08;4.65;;;2.88;;
76171;SDS011;64929;51.178;4.138;2023-12-04T06:38:39;5.93;;;3.33;;
76171;SDS011;64929;51.178;4.138;2023-12-04T06:41:08;5.63;;;3.00;;
76171;SDS011;64929;51.178;4.138;2023-12-04T06:43:35;7.13;;;3.63;;
76171;SDS011;64929;51.178;4.138;2023-12-04T06:46:01;5.43;;;2.83;;
76171;SDS011;64929;51.178;4.138;2023-12-04T06:48:28;7.07;;;2.97;;
76171;SDS011;64929;51.178;4.138;2023-12-04T06:50:53;6.05;;;2.90;;
76171;SDS011;64929;51.178;4.138;2023-12-04T06:53:19;5.97;;;3.40;;
76171;SDS011;64929;51.178;4.138;2023-12-04T06:55:45;6.00;;;2.90;;
76171;SDS011;64929;51.178;4.138;2023-12-04T06:58:10;4.55;;;3.00;;
76171;SDS011;64929;51.178;4.138;2023-12-04T07:00:36;4.20;;;2.65;;
76171;SDS011;64929;51.178;4.138;2023-12-04T07:03:02;6.35;;;3.33;;
76171;SDS011;64929;51.178;4.138;2023-12-04T07:05:28;5.47;;;2.47;;
76171;SDS011;64929;51.178;4.138;2023-12-04T07:07:53;5.10;;;2.85;;
76171;SDS011;64929;51.178;4.138;2023-12-04T07:10:19;4.97;;;2.90;;
76171;SDS011;64929;51.178;4.138;2023-12-04T07:12:45;4.25;;;2.60;;
76171;SDS011;64929;51.178;4.138;2023-12-04T07:15:11;4.45;;;2.58;;
76171;SDS011;64929;51.178;4.138;2023-12-04T07:17:37;5.97;;;3.03;;
76171;SDS011;64929;51.178;4.138;2023-12-04T07:20:05;4.15;;;2.22;;
76171;SDS011;64929;51.178;4.138;2023-12-04T07:22:32;6.35;;;2.80;;
76171;SDS011;64929;51.178;4.138;2023-12-04T07:24:58;5.80;;;2.90;;
76171;SDS011;64929;51.178;4.138;2023-12-04T07:27:24;5.22;;;2.40;;
76171;SDS011;64929;51.178;4.138;2023-12-04T07:29:50;5.22;;;2.78;;
76171;SDS011;64929;51.178;4.138;2023-12-04T07:32:15;4.18;;;2.53;;
76171;SDS011;64929;51.178;4.138;2023-12-04T07:34:43;4.43;;;2.78;;
76171;SDS011;64929;51.178;4.138;2023-12-04T07:37:08;5.45;;;2.70;;
76171;SDS011;64929;51.178;4.138;2023-12-04T07:39:34;4.47;;;2.50;;
76171;SDS011;64929;51.178;4.138;2023-12-04T07:42:00;5.05;;;2.55;;
76171;SDS011;64929;51.178;4.138;2023-12-04T07:44:25;6.95;;;3.03;;
76171;SDS011;64929;51.178;4.138;2023-12-04T07:46:51;4.55;;;2.70;;
76171;SDS011;64929;51.178;4.138;2023-12-04T07:49:17;4.63;;;2.63;;
76171;SDS011;64929;51.178;4.138;2023-12-04T07:51:42;3.97;;;2.72;;
76171;SDS011;64929;51.178;4.138;2023-12-04T07:54:08;6.00;;;2.92;;
76171;SDS011;64929;51.178;4.138;2023-12-04T07:56:34;5.85;;;2.97;;
76171;SDS011;64929;51.178;4.138;2023-12-04T07:58:59;5.65;;;2.92;;
76171;SDS011;64929;51.178;4.138;2023-12-04T08:01:25;5.30;;;2.95;;
76171;SDS011;64929;51.178;4.138;2023-12-04T08:03:51;5.80;;;3.50;;
76171;SDS011;64929;51.178;4.138;2023-12-04T08:06:16;5.05;;;2.90;;
76171;SDS011;64929;51.178;4.138;2023-12-04T08:08:44;7.25;;;2.60;;
76171;SDS011;64929;51.178;4.138;2023-12-04T08:11:10;3.70;;;2.55;;
76171;SDS011;64929;51.178;4.138;2023-12-04T08:13:37;7.03;;;2.80;;
76171;SDS011;64929;51.178;4.138;2023-12-04T08:16:03;8.20;;;3.42;;
76171;SDS011;64929;51.178;4.138;2023-12-04T08:18:29;6.93;;;3.20;;
76171;SDS011;64929;51.178;4.138;2023-12-04T08:20:55;5.60;;;2.95;;
76171;SDS011;64929;51.178;4.138;2023-12-04T08:23:21;6.63;;;2.95;;
76171;SDS011;64929;51.178;4.138;2023-12-04T08:25:47;4.40;;;2.80;;
76171;SDS011;64929;51.178;4.138;2023-12-04T08:28:13;4.55;;;3.47;;
76171;SDS011;64929;51.178;4.138;2023-12-04T08:30:38;6.60;;;3.25;;
76171;SDS011;64929;51.178;4.138;2023-12-04T08:33:04;6.10;;;3.17;;
76171;SDS011;64929;51.178;4.138;2023-12-04T08:35:30;5.70;;;3.00;;
76171;SDS011;64929;51.178;4.138;2023-12-04T08:37:55;5.95;;;3.22;;
76171;SDS011;64929;51.178;4.138;2023-12-04T08:40:21;7.72;;;3.08;;
76171;SDS011;64929;51.178;4.138;2023-12-04T08:42:47;6.28;;;3.78;;
76171;SDS011;64929;51.178;4.138;2023-12-04T08:45:13;5.70;;;3.25;;
76171;SDS011;64929;51.178;4.138;2023-12-04T08:47:38;7.57;;;3.63;;
76171;SDS011;64929;51.178;4.138;2023-12-04T08:50:05;7.93;;;4.07;;
76171;SDS011;64929;51.178;4.138;2023-12-04T08:52:31;7.68;;;3.42;;
76171;SDS011;64929;51.178;4.138;2023-12-04T08:54:57;6.40;;;3.63;;
76171;SDS011;64929;51.178;4.138;2023-12-04T08:57:23;6.65;;;3.50;;
76171;SDS011;64929;51.178;4.138;2023-12-04T08:59:48;6.80;;;3.38;;
76171;SDS011;64929;51.178;4.138;2023-12-04T09:02:14;6.43;;;3.30;;
76171;SDS011;64929;51.178;4.138;2023-12-04T09:04:39;9.25;;;4.30;;
76171;SDS011;64929;51.178;4.138;2023-12-04T09:07:05;9.45;;;3.95;;
76171;SDS011;64929;51.178;4.138;2023-12-04T09:09:31;5.57;;;3.25;;
76171;SDS011;64929;51.178;4.138;2023-12-04T09:11:57;5.75;;;3.50;;
76171;SDS011;64929;51.178;4.138;2023-12-04T09:14:23;8.90;;;3.60;;
76171;SDS011;64929;51.178;4.138;2023-12-04T09:16:48;6.15;;;3.90;;
76171;SDS011;64929;51.178;4.138;2023-12-04T09:19:14;6.50;;;3.58;;
76171;SDS011;64929;51.178;4.138;2023-12-04T09:21:40;5.40;;;3.47;;
76171;SDS011;64929;51.178;4.138;2023-12-04T09:24:06;7.45;;;3.55;;
76171;SDS011;64929;51.178;4.138;2023-12-04T09:26:31;6.93;;;4.00;;
76171;SDS011;64929;51.178;4.138;2023-12-04T09:28:57;9.13;;;3.95;;
76171;SDS011;64929;51.178;4.138;2023-12-04T09:31:23;9.27;;;4.18;;
76171;SDS011;64929;51.178;4.138;2023-12-04T09:33:48;5.25;;;2.97;;
76171;SDS011;64929;51.178;4.138;2023-12-04T09:36:14;7.57;;;3.60;;
76171;SDS011;64929;51.178;4.138;2023-12-04T09:38:40;5.82;;;3.75;;
76171;SDS011;64929;51.178;4.138;2023-12-04T09:41:05;5.05;;;3.25;;
76171;SDS011;64929;51.178;4.138;2023-12-04T09:43:34;6.40;;;3.45;;
76171;SDS011;64929;51.178;4.138;2023-12-04T09:46:00;6.47;;;3.38;;
76171;SDS011;64929;51.178;4.138;2023-12-04T09:48:26;5.03;;;3.13;;
76171;SDS011;64929;51.178;4.138;2023-12-04T09:50:54;6.38;;;3.53;;
76171;SDS011;64929;51.178;4.138;2023-12-04T09:53:21;9.27;;;3.55;;
76171;SDS011;64929;51.178;4.138;2023-12-04T09:55:50;6.47;;;3.42;;
76171;SDS011;64929;51.178;4.138;2023-12-04T09:58:18;5.85;;;3.38;;
76171;SDS011;64929;51.178;4.138;2023-12-04T10:00:45;7.32;;;3.45;;
76171;SDS011;64929;51.178;4.138;2023-12-04T10:03:12;5.45;;;3.35;;
76171;SDS011;64929;51.178;4.138;2023-12-04T10:05:41;6.55;;;3.33;;
76171;SDS011;64929;51.178;4.138;2023-12-04T10:08:08;6.35;;;3.08;;
76171;SDS011;64929;51.178;4.138;2023-12-04T10:10:34;7.22;;;3.33;;
76171;SDS011;64929;51.178;4.138;2023-12-04T10:13:00;5.78;;;3.60;;
76171;SDS011;64929;51.178;4.138;2023-12-04T10:15:26;6.18;;;3.20;;
76171;SDS011;64929;51.178;4.138;2023-12-04T10:17:51;6.40;;;3.35;;
76171;SDS011;64929;51.178;4.138;2023-12-04T10:20:19;6.47;;;3.90;;
76171;SDS011;64929;51.178;4.138;2023-12-04T10:25:25;7.17;;;3.60;;
76171;SDS011;64929;51.178;4.138;2023-12-04T10:27:53;5.03;;;3.42;;
76171;SDS011;64929;51.178;4.138;2023-12-04T10:30:23;5.90;;;3.50;;
76171;SDS011;64929;51.178;4.138;2023-12-04T10:32:57;4.47;;;3.13;;
76171;SDS011;64929;51.178;4.138;2023-12-04T10:35:32;8.07;;;3.75;;
76171;SDS011;64929;51.178;4.138;2023-12-04T10:38:01;6.57;;;3.35;;
76171;SDS011;64929;51.178;4.138;2023-12-04T10:40:28;6.00;;;3.23;;
76171;SDS011;64929;51.178;4.138;2023-12-04T10:43:15;10.07;;;3.63;;
76171;SDS011;64929;51.178;4.138;2023-12-04T10:45:47;6.60;;;3.45;;
76171;SDS011;64929;51.178;4.138;2023-12-04T10:48:14;7.00;;;4.07;;
76171;SDS011;64929;51.178;4.138;2023-12-04T10:50:42;6.43;;;3.67;;
76171;SDS011;64929;51.178;4.138;2023-12-04T10:53:10;8.23;;;4.30;;
76171;SDS011;64929;51.178;4.138;2023-12-04T10:55:37;8.43;;;4.30;;
76171;SDS011;64929;51.178;4.138;2023-12-04T10:58:07;6.38;;;3.85;;
76171;SDS011;64929;51.178;4.138;2023-12-04T11:00:35;8.15;;;4.22;;
76171;SDS011;64929;51.178;4.138;2023-12-04T11:03:07;6.97;;;3.43;;
76171;SDS011;64929;51.178;4.138;2023-12-04T11:05:38;6.33;;;3.70;;
76171;SDS011;64929;51.178;4.138;2023-12-04T11:08:08;7.20;;;3.80;;
76171;SDS011;64929;51.178;4.138;2023-12-04T11:10:45;7.03;;;3.50;;
76171;SDS011;64929;51.178;4.138;2023-12-04T11:13:17;8.70;;;4.03;;
76171;SDS011;64929;51.178;4.138;2023-12-04T11:15:47;8.87;;;4.20;;
76171;SDS011;64929;51.178;4.138;2023-12-04T11:18:20;6.33;;;3.70;;
76171;SDS011;64929;51.178;4.138;2023-12-04T11:20:51;7.40;;;3.80;;
76171;SDS011;64929;51.178;4.138;2023-12-04T11:23:22;7.03;;;4.10;;
76171;SDS011;64929;51.178;4.138;2023-12-04T11:25:48;9.30;;;4.80;;
76171;SDS011;64929;51.178;4.138;2023-12-04T11:28:14;7.50;;;4.13;;
76171;SDS011;64929;51.178;4.138;2023-12-04T11:30:41;7.50;;;4.30;;
76171;SDS011;64929;51.178;4.138;2023-12-04T11:33:08;9.00;;;3.93;;
76171;SDS011;64929;51.178;4.138;2023-12-04T11:35:36;7.63;;;4.33;;
76171;SDS011;64929;51.178;4.138;2023-12-04T11:38:04;6.70;;;3.73;;
76171;SDS011;64929;51.178;4.138;2023-12-04T11:40:32;10.65;;;3.97;;
76171;SDS011;64929;51.178;4.138;2023-12-04T11:42:57;9.13;;;4.60;;
76171;SDS011;64929;51.178;4.138;2023-12-04T11:45:23;10.45;;;4.38;;
76171;SDS011;64929;51.178;4.138;2023-12-04T11:47:54;9.02;;;4.63;;
76171;SDS011;64929;51.178;4.138;2023-12-04T11:50:21;10.17;;;4.63;;
76171;SDS011;64929;51.178;4.138;2023-12-04T11:52:50;10.77;;;4.90;;
76171;SDS011;64929;51.178;4.138;2023-12-04T11:55:17;14.35;;;6.47;;
76171;SDS011;64929;51.178;4.138;2023-12-04T11:57:47;8.40;;;5.25;;
76171;SDS011;64929;51.178;4.138;2023-12-04T12:02:47;8.57;;;4.90;;
76171;SDS011;64929;51.178;4.138;2023-12-04T12:05:13;10.13;;;4.90;;
76171;SDS011;64929;51.178;4.138;2023-12-04T12:07:38;8.70;;;4.72;;
76171;SDS011;64929;51.178;4.138;2023-12-04T12:10:04;9.05;;;5.18;;
76171;SDS011;64929;51.178;4.138;2023-12-04T12:12:30;8.07;;;4.28;;
76171;SDS011;64929;51.178;4.138;2023-12-04T12:15:00;10.68;;;4.95;;
76171;SDS011;64929;51.178;4.138;2023-12-04T12:17:25;7.03;;;4.20;;
76171;SDS011;64929;51.178;4.138;2023-12-04T12:19:51;8.20;;;4.57;;
76171;SDS011;64929;51.178;4.138;2023-12-04T12:22:17;9.15;;;4.78;;
76171;SDS011;64929;51.178;4.138;2023-12-04T12:24:43;7.18;;;3.75;;
76171;SDS011;64929;51.178;4.138;2023-12-04T12:27:08;8.32;;;4.32;;
76171;SDS011;64929;51.178;4.138;2023-12-04T12:29:34;10.57;;;4.47;;
76171;SDS011;64929;51.178;4.138;2023-12-04T12:32:00;9.77;;;4.60;;
76171;SDS011;64929;51.178;4.138;2023-12-04T12:34:25;7.80;;;4.50;;
76171;SDS011;64929;51.178;4.138;2023-12-04T12:36:52;6.53;;;4.53;;
76171;SDS011;64929;51.178;4.138;2023-12-04T12:39:18;7.35;;;4.40;;
76171;SDS011;64929;51.178;4.138;2023-12-04T12:41:48;10.48;;;5.20;;
76171;SDS011;64929;51.178;4.138;2023-12-04T12:44:14;8.57;;;4.90;;
76171;SDS011;64929;51.178;4.138;2023-12-04T12:46:41;9.05;;;4.72;;
76171;SDS011;64929;51.178;4.138;2023-12-04T12:49:07;8.65;;;5.32;;
76171;SDS011;64929;51.178;4.138;2023-12-04T12:51:33;10.32;;;5.72;;
76171;SDS011;64929;51.178;4.138;2023-12-04T12:53:59;10.45;;;5.22;;
76171;SDS011;64929;51.178;4.138;2023-12-04T12:56:25;9.07;;;5.65;;
76171;SDS011;64929;51.178;4.138;2023-12-04T12:58:52;9.60;;;5.07;;
76171;SDS011;64929;51.178;4.138;2023-12-04T13:01:19;9.18;;;5.43;;
76171;SDS011;64929;51.178;4.138;2023-12-04T13:03:50;9.70;;;5.07;;
76171;SDS011;64929;51.178;4.138;2023-12-04T13:06:16;7.95;;;5.28;;
76171;SDS011;64929;51.178;4.138;2023-12-04T13:08:42;11.73;;;5.28;;
76171;SDS011;64929;51.178;4.138;2023-12-04T13:11:08;9.55;;;5.15;;
76171;SDS011;64929;51.178;4.138;2023-12-04T13:13:34;12.90;;;5.65;;
76171;SDS011;64929;51.178;4.138;2023-12-04T13:15:59;10.45;;;5.32;;
76171;SDS011;64929;51.178;4.138;2023-12-04T13:18:25;8.23;;;4.90;;
76171;SDS011;64929;51.178;4.138;2023-12-04T13:20:51;10.65;;;5.53;;
76171;SDS011;64929;51.178;4.138;2023-12-04T13:23:17;9.85;;;5.25;;
76171;SDS011;64929;51.178;4.138;2023-12-04T13:25:42;9.43;;;5.68;;
76171;SDS011;64929;51.178;4.138;2023-12-04T13:28:08;9.88;;;5.32;;
76171;SDS011;64929;51.178;4.138;2023-12-04T13:30:34;7.50;;;4.90;;
76171;SDS011;64929;51.178;4.138;2023-12-04T13:33:00;10.85;;;5.90;;
76171;SDS011;64929;51.178;4.138;2023-12-04T13:35:26;11.63;;;5.65;;
76171;SDS011;64929;51.178;4.138;2023-12-04T13:37:51;7.30;;;4.90;;
76171;SDS011;64929;51.178;4.138;2023-12-04T13:40:20;10.45;;;5.50;;
76171;SDS011;64929;51.178;4.138;2023-12-04T13:42:46;10.43;;;5.80;;
76171;SDS011;64929;51.178;4.138;2023-12-04T13:45:30;11.60;;;5.20;;
76171;SDS011;64929;51.178;4.138;2023-12-04T13:47:56;10.07;;;4.80;;
76171;SDS011;64929;51.178;4.138;2023-12-04T13:50:22;9.43;;;4.93;;
76171;SDS011;64929;51.178;4.138;2023-12-04T13:52:48;9.10;;;4.97;;
76171;SDS011;64929;51.178;4.138;2023-12-04T13:55:21;9.75;;;4.55;;
76171;SDS011;64929;51.178;4.138;2023-12-04T13:58:10;8.80;;;5.05;;
76171;SDS011;64929;51.178;4.138;2023-12-04T14:00:56;8.13;;;4.60;;
76171;SDS011;64929;51.178;4.138;2023-12-04T14:03:22;11.80;;;5.45;;
76171;SDS011;64929;51.178;4.138;2023-12-04T14:05:48;9.93;;;5.40;;
76171;SDS011;64929;51.178;4.138;2023-12-04T14:08:14;10.73;;;5.20;;
76171;SDS011;64929;51.178;4.138;2023-12-04T14:10:39;9.57;;;5.15;;
76171;SDS011;64929;51.178;4.138;2023-12-04T14:13:05;8.15;;;5.20;;
76171;SDS011;64929;51.178;4.138;2023-12-04T14:15:31;10.32;;;5.13;;
76171;SDS011;64929;51.178;4.138;2023-12-04T14:17:56;8.55;;;4.43;;
76171;SDS011;64929;51.178;4.138;2023-12-04T14:20:22;9.52;;;4.88;;
76171;SDS011;64929;51.178;4.138;2023-12-04T14:22:50;9.45;;;5.10;;
76171;SDS011;64929;51.178;4.138;2023-12-04T14:25:15;9.73;;;4.93;;
76171;SDS011;64929;51.178;4.138;2023-12-04T14:27:41;8.48;;;4.50;;
76171;SDS011;64929;51.178;4.138;2023-12-04T14:30:10;11.38;;;5.78;;
76171;SDS011;64929;51.178;4.138;2023-12-04T14:32:36;8.35;;;5.30;;
76171;SDS011;64929;51.178;4.138;2023-12-04T14:35:02;8.15;;;5.25;;
76171;SDS011;64929;51.178;4.138;2023-12-04T14:37:29;9.40;;;5.05;;
76171;SDS011;64929;51.178;4.138;2023-12-04T14:39:55;9.73;;;5.68;;
76171;SDS011;64929;51.178;4.138;2023-12-04T14:42:20;9.13;;;5.57;;
76171;SDS011;64929;51.178;4.138;2023-12-04T14:44:46;13.10;;;4.75;;
76171;SDS011;64929;51.178;4.138;2023-12-04T14:47:12;11.35;;;6.00;;
76171;SDS011;64929;51.178;4.138;2023-12-04T14:49:38;7.78;;;4.40;;